Check out our new PWSWeather beta!
PWSweather.com
Personal Weather Stations
Station Observations
PEISSEN1
PeissenbergDE

PeissenbergDE

Lat: 47.791845, Lon: 11.064121

Elevation: 1929

Station Type: Davis Vantage Pro 2

wetter-peissenberg.de

High Low Average
Temperature 47.5°F8.6°C 40.8°F4.9°C 43.9°F6.6°C
Dew Point 38.8°F3.8°C 35.4°F1.9°C 37.5°F3.1°C
Winds 9.9 mph 15.9 kmh 0.1 mph 0.2 kmh 4.0 mph WNW6.4 kmh WNW
Wind Gusts 19.0 mph30.6 kmh 1.0 mph1.6 kmh 9.0 mph14.5 kmh
Humidity 90% 63% 79%
Pressure 30.08 in1018.6 mb 29.92 in1013.2 mb -
Precipitation 0.21 in5.3 mm - -
Hour Temp Dew Point Humidity Winds Wind Gusts Pressure Precip Precip Rate Daily Precip Total
12:00 AM 49.6°F9.8°C 37.6°F3.1°C 63% 3.0 mph WNW4.8 kmh WNW 7.0 mph11.3 kmh 30.08 in1018.6 mb 0.00 in0.0 mm 0.00 in0.0 mm 0.00 in0.0 mm
12:10 AM 49.5°F9.7°C 37.8°F3.2°C 64% 2.0 mph N3.2 kmh N 7.0 mph11.3 kmh 30.07 in1018.3 mb 0.00 in0.0 mm 0.00 in0.0 mm 0.00 in0.0 mm
12:20 AM 48.9°F9.4°C 37.3°F2.9°C 64% 2.5 mph E4.0 kmh E 7.0 mph11.3 kmh 30.06 in1017.9 mb 0.00 in0.0 mm 0.00 in0.0 mm 0.00 in0.0 mm
02:00 AM 46.9°F8.3°C 36.6°F2.6°C 67% 1.4 mph NW2.3 kmh NW 5.0 mph8.0 kmh 30.05 in1017.6 mb 0.00 in0.0 mm 0.00 in0.0 mm 0.00 in0.0 mm
02:10 AM 46.9°F8.3°C 36.6°F2.6°C 67% 6.8 mph N10.9 kmh N 12.0 mph19.3 kmh 30.04 in1017.3 mb 0.00 in0.0 mm 0.00 in0.0 mm 0.00 in0.0 mm
02:21 AM 46.8°F8.2°C 36.4°F2.4°C 67% 3.3 mph W5.3 kmh W 9.0 mph14.5 kmh 30.03 in1016.9 mb 0.00 in0.0 mm 0.00 in0.0 mm 0.00 in0.0 mm
04:00 AM 47.3°F8.5°C 35.8°F2.1°C 64% 1.7 mph WSW2.7 kmh WSW 5.0 mph8.0 kmh 29.97 in1014.9 mb 0.00 in0.0 mm 0.00 in0.0 mm 0.00 in0.0 mm
04:10 AM 47.1°F8.4°C 35.6°F2.0°C 64% 3.0 mph W4.8 kmh W 6.0 mph9.7 kmh 29.97 in1014.9 mb 0.00 in0.0 mm 0.00 in0.0 mm 0.00 in0.0 mm
04:20 AM 47.3°F8.5°C 35.4°F1.9°C 63% 4.2 mph NW6.8 kmh NW 15.0 mph24.1 kmh 29.96 in1014.6 mb 0.00 in0.0 mm 0.00 in0.0 mm 0.00 in0.0 mm
06:00 AM 47.1°F8.4°C 35.6°F2.0°C 64% 2.7 mph N4.3 kmh N 9.0 mph14.5 kmh 29.94 in1013.9 mb 0.00 in0.0 mm 0.00 in0.0 mm 0.00 in0.0 mm
06:10 AM 47.1°F8.4°C 35.6°F2.0°C 64% 8.2 mph WSW13.2 kmh WSW 13.0 mph20.9 kmh 29.94 in1013.9 mb 0.00 in0.0 mm 0.00 in0.0 mm 0.00 in0.0 mm
06:20 AM 47.5°F8.6°C 36.3°F2.4°C 65% 9.9 mph SSW15.9 kmh SSW 19.0 mph30.6 kmh 29.95 in1014.2 mb 0.00 in0.0 mm 0.00 in0.0 mm 0.00 in0.0 mm
08:00 AM 45.3°F7.4°C 37.5°F3.1°C 74% 5.6 mph N9.0 kmh N 10.0 mph16.1 kmh 29.93 in1013.5 mb 0.00 in0.0 mm 0.00 in0.0 mm 0.00 in0.0 mm
08:10 AM 45.3°F7.4°C 37.9°F3.3°C 75% 4.7 mph WSW7.6 kmh WSW 9.0 mph14.5 kmh 29.92 in1013.2 mb 0.00 in0.0 mm 0.00 in0.0 mm 0.00 in0.0 mm
08:20 AM 45.7°F7.6°C 37.5°F3.1°C 73% 6.2 mph WSW10.0 kmh WSW 10.0 mph16.1 kmh 29.92 in1013.2 mb 0.00 in0.0 mm 0.00 in0.0 mm 0.00 in0.0 mm
10:00 AM 43.7°F6.5°C 38.6°F3.7°C 82% 5.8 mph N9.3 kmh N 10.0 mph16.1 kmh 29.94 in1013.9 mb 0.00 in0.0 mm 0.00 in0.0 mm 0.02 in0.5 mm
10:10 AM 43.0°F6.1°C 38.2°F3.4°C 83% 4.8 mph W7.7 kmh W 9.0 mph14.5 kmh 29.94 in1013.9 mb 0.00 in0.0 mm 0.00 in0.0 mm 0.04 in1.0 mm
10:20 AM 42.4°F5.8°C 38.0°F3.3°C 84% 2.1 mph N3.4 kmh N 5.0 mph8.0 kmh 29.94 in1013.9 mb 0.00 in0.0 mm 0.00 in0.0 mm 0.06 in1.5 mm
12:00 PM 41.7°F5.4°C 38.1°F3.4°C 87% 2.2 mph NNW3.5 kmh NNW 8.0 mph12.9 kmh 29.95 in1014.2 mb 0.00 in0.0 mm 0.00 in0.0 mm 0.12 in3.0 mm
12:10 PM 41.4°F5.2°C 37.5°F3.1°C 86% 2.8 mph W4.5 kmh W 8.0 mph12.9 kmh 29.95 in1014.2 mb 0.01 in0.3 mm 0.05 in1.3 mm 0.13 in3.3 mm
12:21 PM 41.5°F5.3°C 37.7°F3.2°C 86% 6.2 mph W10.0 kmh W 13.0 mph20.9 kmh 29.94 in1013.9 mb 0.00 in0.0 mm 0.00 in0.0 mm 0.13 in3.3 mm
02:00 PM 43.9°F6.6°C 38.8°F3.8°C 82% 9.4 mph NW15.1 kmh NW 14.0 mph22.5 kmh 29.94 in1013.9 mb 0.00 in0.0 mm 0.00 in0.0 mm 0.13 in3.3 mm
02:10 PM 44.2°F6.8°C 38.8°F3.8°C 81% 5.2 mph N8.4 kmh N 8.0 mph12.9 kmh 29.95 in1014.2 mb 0.00 in0.0 mm 0.00 in0.0 mm 0.13 in3.3 mm
02:20 PM 44.6°F7.0°C 38.8°F3.8°C 80% 2.4 mph N3.9 kmh N 6.0 mph9.7 kmh 29.94 in1013.9 mb 0.00 in0.0 mm 0.00 in0.0 mm 0.13 in3.3 mm
04:00 PM 43.3°F6.3°C 37.6°F3.1°C 80% 4.0 mph W6.4 kmh W 9.0 mph14.5 kmh 29.96 in1014.6 mb 0.00 in0.0 mm 0.00 in0.0 mm 0.13 in3.3 mm
04:10 PM 43.2°F6.2°C 37.7°F3.2°C 81% 5.8 mph NW9.3 kmh NW 12.0 mph19.3 kmh 29.96 in1014.6 mb 0.00 in0.0 mm 0.00 in0.0 mm 0.13 in3.3 mm
04:20 PM 43.2°F6.2°C 37.7°F3.2°C 81% 2.9 mph NW4.7 kmh NW 8.0 mph12.9 kmh 29.96 in1014.6 mb 0.00 in0.0 mm 0.00 in0.0 mm 0.13 in3.3 mm
06:00 PM 41.7°F5.4°C 37.6°F3.1°C 85% 2.5 mph N4.0 kmh N 7.0 mph11.3 kmh 29.99 in1015.6 mb 0.00 in0.0 mm 0.00 in0.0 mm 0.13 in3.3 mm
06:10 PM 41.5°F5.3°C 37.7°F3.2°C 86% 4.7 mph S7.6 kmh S 8.0 mph12.9 kmh 29.99 in1015.6 mb 0.00 in0.0 mm 0.00 in0.0 mm 0.14 in3.6 mm
06:20 PM 41.5°F5.3°C 37.7°F3.2°C 86% 6.3 mph WSW10.1 kmh WSW 11.0 mph17.7 kmh 29.99 in1015.6 mb 0.00 in0.0 mm 0.00 in0.0 mm 0.14 in3.6 mm
08:00 PM 41.2°F5.1°C 38.5°F3.6°C 90% 0.7 mph N1.1 kmh N 4.0 mph6.4 kmh 30.04 in1017.3 mb 0.00 in0.0 mm 0.00 in0.0 mm 0.21 in5.3 mm
08:10 PM 41.0°F5.0°C 38.3°F3.5°C 90% 0.3 mph N0.5 kmh N 2.0 mph3.2 kmh 30.04 in1017.3 mb 0.00 in0.0 mm 0.00 in0.0 mm 0.21 in5.3 mm
08:20 PM 40.8°F4.9°C 38.1°F3.4°C 90% 0.1 mph N0.2 kmh N 1.0 mph1.6 kmh 30.04 in1017.3 mb 0.00 in0.0 mm 0.00 in0.0 mm 0.21 in5.3 mm
10:00 PM 41.4°F5.2°C 38.1°F3.4°C 88% 4.5 mph N7.2 kmh N 11.0 mph17.7 kmh 30.07 in1018.3 mb 0.00 in0.0 mm 0.00 in0.0 mm 0.21 in5.3 mm
10:10 PM 41.4°F5.2°C 38.1°F3.4°C 88% 6.9 mph SW11.1 kmh SW 12.0 mph19.3 kmh 30.07 in1018.3 mb 0.00 in0.0 mm 0.00 in0.0 mm 0.21 in5.3 mm
10:20 PM 41.4°F5.2°C 38.1°F3.4°C 88% 5.0 mph W8.0 kmh W 8.0 mph12.9 kmh 30.08 in1018.6 mb 0.00 in0.0 mm 0.00 in0.0 mm 0.21 in5.3 mm